createdAt,value
2023-04-11T00:00:51.848Z,16.30
2023-04-11T00:01:55.110Z,16.98
2023-04-11T00:02:57.454Z,19.94
2023-04-11T00:03:59.713Z,17.01
2023-04-11T00:05:01.923Z,19.31
2023-04-11T00:06:07.765Z,21.67
2023-04-11T00:07:09.776Z,21.32
2023-04-11T00:08:11.827Z,23.09
2023-04-11T00:09:13.715Z,18.86
2023-04-11T00:10:18.321Z,19.93
2023-04-11T00:11:20.245Z,18.38
2023-04-11T00:12:22.135Z,21.43
2023-04-11T00:13:24.031Z,17.87
2023-04-11T00:14:26.090Z,20.30
2023-04-11T00:15:30.944Z,19.57
2023-04-11T00:16:33.179Z,18.18
2023-04-11T00:17:36.224Z,22.05
2023-04-11T00:18:38.222Z,17.99
2023-04-11T00:19:40.112Z,17.69
2023-04-11T00:20:42.554Z,17.11
2023-04-11T00:21:44.576Z,17.60
2023-04-11T00:22:46.515Z,19.03
2023-04-11T00:23:48.381Z,19.78
2023-04-11T00:24:50.267Z,20.31
2023-04-11T00:25:52.227Z,18.12
2023-04-11T00:26:55.705Z,21.54
2023-04-11T00:27:57.976Z,17.17
2023-04-11T00:28:59.854Z,18.45
2023-04-11T00:30:04.048Z,21.67
2023-04-11T00:31:06.711Z,20.30
2023-04-11T00:32:08.738Z,23.60
2023-04-11T00:33:10.861Z,21.85
2023-04-11T00:34:13.199Z,19.26
2023-04-11T00:35:15.906Z,19.66
2023-04-11T00:36:18.201Z,16.83
2023-04-11T00:37:21.953Z,17.43
2023-04-11T00:38:25.262Z,21.79
2023-04-11T00:39:27.644Z,20.76
2023-04-11T00:40:30.925Z,21.31
2023-04-11T00:41:32.936Z,22.42
2023-04-11T00:42:34.796Z,17.61
2023-04-11T00:43:37.261Z,17.16
2023-04-11T00:44:39.130Z,20.09
2023-04-11T00:45:42.430Z,17.76
2023-04-11T00:46:46.262Z,19.62
2023-04-11T00:47:50.812Z,19.35
2023-04-11T00:48:53.865Z,19.56
2023-04-11T00:49:55.946Z,18.73
2023-04-11T00:50:58.717Z,16.14
2023-04-11T00:52:02.343Z,17.71
2023-04-11T00:53:04.703Z,19.29
2023-04-11T00:54:06.831Z,16.95
2023-04-11T00:55:09.603Z,18.33
2023-04-11T00:56:11.969Z,17.46
2023-04-11T00:57:14.692Z,20.03
2023-04-11T00:58:17.306Z,19.40
2023-04-11T00:59:20.001Z,20.89
2023-04-11T01:00:23.472Z,19.11
2023-04-11T01:01:25.638Z,19.34
2023-04-11T01:02:27.777Z,17.54
2023-04-11T01:03:30.376Z,18.55
2023-04-11T01:04:32.525Z,19.55
2023-04-11T01:05:35.319Z,20.19
2023-04-11T01:06:38.030Z,18.47
2023-04-11T01:07:42.604Z,20.45
2023-04-11T01:08:46.408Z,20.03
2023-04-11T01:09:49.305Z,19.46
2023-04-11T01:10:52.524Z,17.92
2023-04-11T01:11:56.795Z,20.09
2023-04-11T01:13:01.282Z,21.00
2023-04-11T01:14:04.834Z,21.52
2023-04-11T01:15:07.688Z,21.29
2023-04-11T01:16:10.616Z,20.69
2023-04-11T01:17:13.870Z,17.77
2023-04-11T01:18:15.735Z,23.33
2023-04-11T01:19:19.650Z,21.47
2023-04-11T01:20:22.140Z,20.21
2023-04-11T01:21:26.486Z,19.31
2023-04-11T01:22:29.412Z,25.40
2023-04-11T01:23:31.711Z,23.63
2023-04-11T01:24:33.866Z,20.68
2023-04-11T01:25:35.773Z,21.38
2023-04-11T01:26:39.631Z,20.67
2023-04-11T01:27:42.685Z,22.91
2023-04-11T01:28:45.822Z,21.57
2023-04-11T01:29:48.163Z,23.59
2023-04-11T01:30:51.247Z,19.59
2023-04-11T01:31:53.362Z,24.35
2023-04-11T01:32:55.371Z,21.89
2023-04-11T01:33:59.973Z,19.92
2023-04-11T01:35:04.656Z,21.51
2023-04-11T01:36:08.683Z,24.91
2023-04-11T01:37:11.292Z,21.06
2023-04-11T01:38:13.172Z,22.30
2023-04-11T01:39:15.159Z,19.41
2023-04-11T01:40:18.740Z,20.23
2023-04-11T01:41:22.972Z,22.90
2023-04-11T01:42:26.324Z,21.03
2023-04-11T01:43:28.485Z,21.24
2023-04-11T01:44:32.061Z,20.57
2023-04-11T01:45:35.723Z,24.24
2023-04-11T01:46:41.721Z,21.74
2023-04-11T01:47:47.443Z,24.79
2023-04-11T01:48:52.018Z,21.91
2023-04-11T01:49:54.117Z,23.89
2023-04-11T01:50:56.403Z,26.97
2023-04-11T01:52:00.673Z,19.29
2023-04-11T01:53:03.567Z,20.96
2023-04-11T01:54:05.465Z,22.74
2023-04-11T01:55:08.278Z,24.95
2023-04-11T01:56:12.156Z,20.34
2023-04-11T01:57:14.636Z,21.52
2023-04-11T01:58:16.519Z,24.72
2023-04-11T01:59:18.473Z,21.64
2023-04-11T02:00:21.826Z,21.43
2023-04-11T02:01:24.945Z,27.85
2023-04-11T02:02:27.073Z,27.99
2023-04-11T02:03:29.236Z,19.85
2023-04-11T02:04:31.405Z,20.73
2023-04-11T02:05:33.272Z,20.97
2023-04-11T02:06:35.336Z,24.25
2023-04-11T02:07:38.302Z,24.08
2023-04-11T02:08:40.277Z,19.07
2023-04-11T02:09:42.163Z,20.95
2023-04-11T02:10:44.303Z,26.19
2023-04-11T02:11:46.183Z,21.11
2023-04-11T02:12:48.152Z,21.53
2023-04-11T02:13:50.015Z,22.98
2023-04-11T02:14:51.891Z,21.41
2023-04-11T02:15:53.821Z,19.44
2023-04-11T02:16:55.926Z,20.53
2023-04-11T02:17:58.475Z,18.93
2023-04-11T02:19:01.111Z,19.99
2023-04-11T02:20:04.333Z,20.35
2023-04-11T02:21:07.024Z,19.89
2023-04-11T02:22:09.022Z,21.00
2023-04-11T02:23:10.912Z,21.67
2023-04-11T02:24:13.183Z,20.74
2023-04-11T02:25:15.549Z,18.91
2023-04-11T02:26:17.697Z,20.17
2023-04-11T02:27:19.657Z,17.62
2023-04-11T02:28:21.540Z,18.99
2023-04-11T02:29:23.498Z,17.97
2023-04-11T02:30:25.636Z,23.55
2023-04-11T02:31:27.646Z,19.52
2023-04-11T02:32:29.692Z,20.33
2023-04-11T02:33:31.681Z,19.58
2023-04-11T02:34:33.741Z,22.32
2023-04-11T02:35:35.661Z,17.99
2023-04-11T02:36:38.228Z,19.04
2023-04-11T02:37:40.328Z,17.95
2023-04-11T02:38:42.368Z,19.67
2023-04-11T02:39:44.535Z,19.99
2023-04-11T02:40:47.173Z,15.83
2023-04-11T02:41:49.988Z,16.52
2023-04-11T02:42:51.873Z,20.23
2023-04-11T02:43:54.531Z,21.12
2023-04-11T02:44:56.418Z,19.35
2023-04-11T02:46:09.493Z,17.93
2023-04-11T02:47:02.569Z,19.45
2023-04-11T02:48:05.216Z,18.30
2023-04-11T02:49:07.745Z,19.31
2023-04-11T02:50:10.897Z,18.63
2023-04-11T02:51:13.888Z,18.34
2023-04-11T02:52:17.423Z,18.69
2023-04-11T02:53:19.625Z,16.26
2023-04-11T02:54:21.611Z,19.70
2023-04-11T02:55:23.545Z,18.41
2023-04-11T02:56:25.915Z,20.07
2023-04-11T02:57:27.846Z,19.69
2023-04-11T02:58:29.771Z,19.15
2023-04-11T02:59:31.810Z,16.11
2023-04-11T03:00:34.245Z,18.12
2023-04-11T03:01:36.223Z,16.60
2023-04-11T03:02:38.411Z,18.57
2023-04-11T03:03:40.710Z,20.13
2023-04-11T03:04:42.739Z,17.94
2023-04-11T03:05:46.225Z,17.49
2023-04-11T03:06:48.377Z,18.44
2023-04-11T03:07:50.551Z,19.95
2023-04-11T03:08:52.517Z,21.09
2023-04-11T03:09:54.652Z,18.76
2023-04-11T03:10:56.835Z,18.57
2023-04-11T03:11:58.893Z,18.11
2023-04-11T03:13:01.021Z,18.16
2023-04-11T03:14:03.216Z,16.61
2023-04-11T03:15:06.410Z,18.08
2023-04-11T03:16:09.066Z,19.14
2023-04-11T03:17:11.040Z,19.94
2023-04-11T03:18:13.034Z,18.95
2023-04-11T03:19:14.990Z,19.33
2023-04-11T03:20:17.998Z,18.89
2023-04-11T03:21:19.965Z,19.96
2023-04-11T03:22:21.849Z,22.26
2023-04-11T03:23:23.725Z,16.23
2023-04-11T03:24:26.339Z,19.24
2023-04-11T03:25:28.206Z,21.43
2023-04-11T03:26:30.250Z,18.53
2023-04-11T03:27:32.138Z,21.07
2023-04-11T03:28:34.194Z,20.65
2023-04-11T03:29:36.150Z,18.15
2023-04-11T03:30:39.966Z,22.64
2023-04-11T03:31:41.924Z,20.97
2023-04-11T03:32:44.481Z,17.99
2023-04-11T03:33:46.690Z,18.97
2023-04-11T03:34:50.628Z,23.18
2023-04-11T03:35:52.551Z,19.68
2023-04-11T03:36:54.633Z,18.41
2023-04-11T03:37:56.486Z,19.61
2023-04-11T03:38:58.463Z,19.33
2023-04-11T03:40:01.819Z,17.41
2023-04-11T03:41:04.189Z,19.48
2023-04-11T03:42:06.058Z,19.84
2023-04-11T03:43:07.933Z,20.05
2023-04-11T03:44:10.144Z,18.45
2023-04-11T03:45:12.063Z,18.71
2023-04-11T03:46:14.572Z,20.95
2023-04-11T03:47:16.472Z,20.92
2023-04-11T03:48:19.993Z,17.81
2023-04-11T03:49:22.324Z,21.28
2023-04-11T03:50:24.688Z,18.53
2023-04-11T03:51:26.577Z,19.29
2023-04-11T03:52:29.238Z,20.69
2023-04-11T03:53:31.130Z,18.82
2023-04-11T03:54:33.293Z,20.65
2023-04-11T03:55:35.700Z,18.79
2023-04-11T03:56:38.021Z,18.59
2023-04-11T03:57:39.993Z,18.87
2023-04-11T03:58:41.879Z,18.49
2023-04-11T03:59:43.766Z,18.59
2023-04-11T04:00:47.218Z,20.29
2023-04-11T04:01:49.177Z,21.53
2023-04-11T04:02:51.316Z,20.77
2023-04-11T04:03:53.886Z,20.10
2023-04-11T04:04:56.199Z,19.95
2023-04-11T04:05:58.243Z,20.70
2023-04-11T04:07:00.615Z,20.69
2023-04-11T04:08:02.507Z,21.07
2023-04-11T04:09:04.524Z,19.47
2023-04-11T04:10:07.728Z,17.71
2023-04-11T04:11:09.718Z,19.57
2023-04-11T04:12:11.702Z,21.21
2023-04-11T04:13:13.566Z,18.80
2023-04-11T04:14:16.357Z,19.02
2023-04-11T04:15:18.346Z,20.00
2023-04-11T04:16:20.415Z,18.81
2023-04-11T04:17:23.381Z,17.74
2023-04-11T04:18:25.579Z,21.36
2023-04-11T04:19:27.547Z,23.33
2023-04-11T04:20:30.406Z,20.21
2023-04-11T04:21:32.539Z,18.35
2023-04-11T04:22:34.774Z,19.93
2023-04-11T04:23:38.690Z,18.55
2023-04-11T04:24:41.094Z,19.67
2023-04-11T04:25:52.095Z,20.23
2023-04-11T04:26:55.394Z,19.86
2023-04-11T04:27:57.391Z,20.51
2023-04-11T04:28:59.356Z,20.27
2023-04-11T04:30:03.730Z,22.28
2023-04-11T04:31:06.413Z,21.29
2023-04-11T04:32:08.559Z,20.93
2023-04-11T04:33:11.137Z,20.04
2023-04-11T04:34:13.159Z,21.81
2023-04-11T04:35:15.317Z,23.37
2023-04-11T04:36:17.403Z,23.57
2023-04-11T04:37:19.452Z,20.48
2023-04-11T04:38:21.446Z,22.19
2023-04-11T04:39:23.490Z,20.87
2023-04-11T04:40:25.491Z,20.17
2023-04-11T04:41:27.571Z,20.53
2023-04-11T04:42:29.669Z,21.69
2023-04-11T04:43:32.441Z,18.60
2023-04-11T04:44:34.672Z,18.04
2023-04-11T04:45:36.777Z,19.59
2023-04-11T04:46:38.936Z,19.37
2023-04-11T04:47:41.566Z,21.89
2023-04-11T04:48:44.506Z,18.80
2023-04-11T04:49:46.404Z,20.81
2023-04-11T04:50:48.507Z,19.10
2023-04-11T04:51:50.500Z,18.38
2023-04-11T04:52:52.358Z,16.03
2023-04-11T04:53:54.644Z,20.01
2023-04-11T04:54:57.663Z,18.05
2023-04-11T04:56:00.768Z,17.88
2023-04-11T04:57:04.381Z,17.00
2023-04-11T04:58:06.297Z,18.55
2023-04-11T04:59:08.210Z,19.71
2023-04-11T05:00:12.086Z,16.22
2023-04-11T05:01:15.297Z,16.84
2023-04-11T05:02:17.389Z,15.33
2023-04-11T05:03:19.536Z,20.27
2023-04-11T05:04:21.836Z,16.59
2023-04-11T05:05:23.886Z,18.20
2023-04-11T05:06:27.129Z,17.89
2023-04-11T05:07:29.519Z,15.63
2023-04-11T05:08:31.417Z,16.12
2023-04-11T05:09:33.375Z,19.09
2023-04-11T05:10:35.577Z,18.21
2023-04-11T05:11:37.833Z,21.29
2023-04-11T05:12:39.786Z,21.03
2023-04-11T05:13:41.635Z,18.16
2023-04-11T05:14:43.523Z,18.91
2023-04-11T05:15:49.343Z,20.64
2023-04-11T05:16:51.489Z,15.92
2023-04-11T05:17:53.582Z,20.53
2023-04-11T05:18:55.611Z,19.07
2023-04-11T05:19:57.469Z,19.04
2023-04-11T05:21:00.905Z,15.36
2023-04-11T05:22:03.231Z,16.26
2023-04-11T05:23:05.541Z,19.71
2023-04-11T05:24:08.160Z,18.96
2023-04-11T05:25:10.158Z,19.57
2023-04-11T05:26:14.280Z,18.67
2023-04-11T05:27:16.294Z,16.98
2023-04-11T05:28:18.150Z,19.43
2023-04-11T05:29:20.998Z,18.41
2023-04-11T05:30:23.118Z,16.04
2023-04-11T05:31:25.085Z,15.86
2023-04-11T05:32:26.979Z,16.53
2023-04-11T05:33:29.551Z,14.20
2023-04-11T05:34:31.964Z,16.59
2023-04-11T05:35:34.678Z,16.64
2023-04-11T05:36:36.972Z,17.27
2023-04-11T05:37:39.385Z,16.67
2023-04-11T05:38:42.958Z,16.62
2023-04-11T05:39:45.111Z,15.54
2023-04-11T05:40:47.457Z,17.01
2023-04-11T05:41:50.515Z,16.45
2023-04-11T05:42:52.382Z,15.75
2023-04-11T05:43:54.551Z,17.39
2023-04-11T05:44:56.874Z,12.91
2023-04-11T05:46:00.536Z,12.75
2023-04-11T05:47:02.592Z,12.73
2023-04-11T05:48:08.075Z,15.25
2023-04-11T05:49:10.163Z,16.57
2023-04-11T05:50:14.355Z,13.79
2023-04-11T05:51:16.513Z,13.43
2023-04-11T05:52:18.376Z,18.41
2023-04-11T05:53:20.250Z,15.90
2023-04-11T05:54:33.132Z,14.53
2023-04-11T05:55:36.067Z,13.76
2023-04-11T05:56:38.061Z,16.82
2023-04-11T05:57:39.956Z,11.97
2023-04-11T05:58:42.741Z,16.33
2023-04-11T05:59:46.050Z,11.63
2023-04-11T06:00:48.054Z,18.38
2023-04-11T06:01:50.084Z,13.96
2023-04-11T06:02:52.260Z,13.15
2023-04-11T06:03:54.396Z,14.31
2023-04-11T06:04:57.042Z,11.59
2023-04-11T06:05:59.638Z,13.89
2023-04-11T06:07:01.679Z,13.43
2023-04-11T06:08:06.378Z,14.47
2023-04-11T06:09:09.141Z,10.88
2023-04-11T06:10:11.906Z,16.72
2023-04-11T06:11:13.858Z,13.62
2023-04-11T06:12:15.804Z,10.08
2023-04-11T06:13:17.687Z,12.86
2023-04-11T06:14:19.564Z,13.43
2023-04-11T06:15:23.703Z,12.55
2023-04-11T06:16:25.910Z,11.24
2023-04-11T06:17:27.983Z,15.71
2023-04-11T06:18:29.942Z,15.73
2023-04-11T06:19:32.997Z,14.37
2023-04-11T06:20:35.147Z,11.56
2023-04-11T06:21:37.161Z,9.67
2023-04-11T06:22:39.149Z,9.18
2023-04-11T06:23:41.234Z,11.65
2023-04-11T06:24:43.405Z,10.70
2023-04-11T06:25:45.303Z,11.55
2023-04-11T06:26:47.355Z,12.83
2023-04-11T06:27:49.869Z,8.80
2023-04-11T06:28:51.976Z,10.85
2023-04-11T06:29:53.951Z,10.46
2023-04-11T06:30:56.254Z,9.85
2023-04-11T06:31:58.547Z,11.23
2023-04-11T06:33:00.577Z,10.23
2023-04-11T06:34:02.546Z,10.10
2023-04-11T06:35:05.543Z,10.19
2023-04-11T06:36:09.029Z,9.16
2023-04-11T06:37:11.084Z,9.14
2023-04-11T06:38:12.984Z,6.91
2023-04-11T06:39:17.796Z,11.69
2023-04-11T06:40:20.112Z,11.12
2023-04-11T06:41:22.109Z,9.04
2023-04-11T06:42:23.978Z,11.27
2023-04-11T06:43:26.586Z,7.94
2023-04-11T06:44:29.340Z,8.22
2023-04-11T06:45:31.372Z,7.83
2023-04-11T06:46:34.013Z,9.35
2023-04-11T06:47:36.368Z,9.73
2023-04-11T06:48:38.377Z,10.29
2023-04-11T06:49:40.825Z,8.71
2023-04-11T06:50:43.220Z,9.05
2023-04-11T06:51:45.845Z,7.95
2023-04-11T06:52:47.914Z,7.86
2023-04-11T06:53:49.832Z,8.69
2023-04-11T06:54:51.715Z,8.35
2023-04-11T06:55:53.668Z,7.76
2023-04-11T06:56:55.860Z,8.61
2023-04-11T06:57:58.755Z,10.19
2023-04-11T06:59:01.600Z,8.37
2023-04-11T07:00:05.057Z,10.96
2023-04-11T07:01:07.563Z,8.34
2023-04-11T07:02:10.005Z,7.91
2023-04-11T07:03:12.439Z,8.48
2023-04-11T07:04:15.345Z,8.42
2023-04-11T07:05:19.172Z,7.70
2023-04-11T07:06:21.715Z,6.94
2023-04-11T07:07:24.107Z,10.54
2023-04-11T07:08:26.562Z,8.33
2023-04-11T07:09:28.550Z,8.65
2023-04-11T07:10:31.151Z,7.57
2023-04-11T07:11:33.072Z,9.92
2023-04-11T07:12:34.972Z,8.31
2023-04-11T07:13:37.562Z,8.12
2023-04-11T07:14:39.801Z,6.41
2023-04-11T07:15:41.716Z,7.51
2023-04-11T07:16:44.429Z,10.23
2023-04-11T07:17:47.820Z,7.78
2023-04-11T07:18:49.800Z,7.77
2023-04-11T07:19:51.788Z,9.28
2023-04-11T07:21:14.296Z,8.80
2023-04-11T07:22:16.230Z,7.09
2023-04-11T07:23:18.205Z,6.57
2023-04-11T07:24:20.072Z,7.05
2023-04-11T07:25:27.015Z,8.95
2023-04-11T07:26:29.095Z,11.67
2023-04-11T07:27:31.085Z,6.99
2023-04-11T07:28:33.043Z,6.97
2023-04-11T07:29:35.007Z,7.37
2023-04-11T07:30:37.104Z,8.98
2023-04-11T07:31:39.128Z,6.37
2023-04-11T07:32:41.714Z,8.65
2023-04-11T07:33:43.657Z,7.64
2023-04-11T07:34:45.509Z,9.71
2023-04-11T07:35:47.509Z,7.95
2023-04-11T07:36:49.573Z,6.39
2023-04-11T07:37:52.652Z,6.74
2023-04-11T07:38:54.527Z,5.64
2023-04-11T07:39:56.408Z,6.91
2023-04-11T07:41:00.818Z,6.19
2023-04-11T07:42:02.769Z,7.94
2023-04-11T07:43:04.728Z,9.74
2023-04-11T07:44:06.726Z,9.39
2023-04-11T07:45:10.037Z,10.44
2023-04-11T07:46:12.599Z,6.37
2023-04-11T07:47:15.877Z,8.96
2023-04-11T07:48:17.836Z,11.60
2023-04-11T07:49:19.782Z,7.21
2023-04-11T07:50:21.849Z,13.33
2023-04-11T07:51:23.712Z,7.35
2023-04-11T07:52:25.687Z,7.15
2023-04-11T07:53:27.648Z,7.92
2023-04-11T07:54:29.640Z,9.68
2023-04-11T07:55:31.503Z,7.39
2023-04-11T07:56:33.603Z,6.83
2023-04-11T07:57:35.603Z,7.52
2023-04-11T07:58:37.522Z,5.75
2023-04-11T07:59:40.233Z,6.98
2023-04-11T08:00:42.498Z,7.11
2023-04-11T08:01:44.531Z,6.77
2023-04-11T08:02:46.620Z,6.94
2023-04-11T08:03:49.094Z,6.75
2023-04-11T08:04:53.578Z,8.28
2023-04-11T08:05:55.674Z,8.92
2023-04-11T08:06:57.638Z,9.56
2023-04-11T08:08:00.278Z,8.95
2023-04-11T08:09:02.171Z,7.31
2023-04-11T08:10:07.776Z,7.18
2023-04-11T08:11:09.776Z,11.67
2023-04-11T08:12:11.706Z,8.73
2023-04-11T08:13:13.564Z,7.00
2023-04-11T08:14:15.428Z,8.33
2023-04-11T08:15:18.320Z,6.47
2023-04-11T08:16:20.324Z,7.98
2023-04-11T08:17:28.111Z,5.99
2023-04-11T08:18:26.168Z,5.82
2023-04-11T08:19:28.319Z,6.93
2023-04-11T08:20:31.347Z,7.05
2023-04-11T08:21:33.253Z,6.93
2023-04-11T08:22:35.158Z,8.16
2023-04-11T08:23:39.008Z,7.67
2023-04-11T08:24:41.014Z,6.21
2023-04-11T08:25:42.999Z,6.91
2023-04-11T08:26:45.123Z,7.36
2023-04-11T08:27:49.591Z,6.65
2023-04-11T08:28:51.606Z,6.88
2023-04-11T08:29:53.549Z,7.18
2023-04-11T08:30:55.870Z,7.64
2023-04-11T08:31:58.058Z,11.51
2023-04-11T08:32:59.993Z,5.62
2023-04-11T08:34:03.867Z,9.25
2023-04-11T08:35:06.844Z,8.53
2023-04-11T08:36:10.838Z,7.69
2023-04-11T08:37:13.042Z,6.35
2023-04-11T08:38:14.974Z,7.58
2023-04-11T08:39:16.847Z,5.57
2023-04-11T08:40:19.121Z,7.55
2023-04-11T08:41:21.007Z,7.22
2023-04-11T08:42:26.004Z,6.15
2023-04-11T08:43:28.147Z,7.42
2023-04-11T08:44:30.530Z,7.65
2023-04-11T08:45:32.787Z,6.97
2023-04-11T08:46:39.038Z,6.23
2023-04-11T08:47:43.925Z,8.26
2023-04-11T08:48:45.252Z,6.84
2023-04-11T08:49:47.412Z,5.03
2023-04-11T08:50:49.478Z,6.10
2023-04-11T08:51:53.444Z,10.40
2023-04-11T08:52:58.180Z,8.13
2023-04-11T08:54:03.938Z,6.96
2023-04-11T08:55:06.549Z,6.96
2023-04-11T08:56:14.466Z,7.61
2023-04-11T08:57:27.312Z,8.03
2023-04-11T08:58:29.234Z,7.54
2023-04-11T08:59:32.949Z,6.76
2023-04-11T09:00:35.048Z,7.51
2023-04-11T09:01:37.002Z,9.92
2023-04-11T09:04:08.020Z,6.98
2023-04-11T09:05:13.669Z,8.11
2023-04-11T09:06:16.171Z,5.58
2023-04-11T09:07:18.173Z,6.35
2023-04-11T09:08:20.056Z,6.31
2023-04-11T09:09:29.223Z,5.19
2023-04-11T09:10:32.080Z,7.37
2023-04-11T09:11:53.796Z,9.69
2023-04-11T09:12:56.689Z,10.05
2023-04-11T09:14:09.768Z,8.16
2023-04-11T09:15:20.923Z,9.39
2023-04-11T09:16:23.193Z,5.82
2023-04-11T09:17:28.989Z,7.48
2023-04-11T09:18:34.559Z,7.67
2023-04-11T09:19:36.548Z,6.57
2023-04-11T09:20:38.539Z,6.37
2023-04-11T09:21:48.572Z,7.53
2023-04-11T09:22:50.957Z,6.89
2023-04-11T09:23:52.819Z,6.34
2023-04-11T09:25:02.228Z,6.61
2023-04-11T09:26:06.487Z,7.55
2023-04-11T09:27:16.754Z,5.74
2023-04-11T09:28:19.431Z,6.00
2023-04-11T09:29:38.638Z,8.47
2023-04-11T09:30:44.513Z,5.40
2023-04-11T09:31:48.445Z,5.82
2023-04-11T09:32:53.032Z,7.16
2023-04-11T09:33:58.150Z,7.14
2023-04-11T09:35:08.011Z,4.32
2023-04-11T09:36:19.343Z,5.98
2023-04-11T09:37:21.371Z,7.21
2023-04-11T09:38:30.043Z,5.43
2023-04-11T09:39:32.034Z,5.65
2023-04-11T09:40:42.506Z,8.75
2023-04-11T09:41:44.887Z,7.82
2023-04-11T09:42:48.656Z,6.49
2023-04-11T09:45:05.598Z,8.77
2023-04-11T09:46:09.472Z,6.75
2023-04-11T09:47:11.592Z,6.52
2023-04-11T09:48:13.526Z,5.11
2023-04-11T09:49:15.564Z,7.29
2023-04-11T09:50:18.359Z,6.91
2023-04-11T09:51:34.413Z,6.82
2023-04-11T09:52:26.479Z,5.41
2023-04-11T09:53:29.478Z,5.74
2023-04-11T09:54:32.840Z,5.24
2023-04-11T09:55:37.198Z,4.68
2023-04-11T09:56:39.798Z,7.02
2023-04-11T09:57:47.526Z,4.83
2023-04-11T09:58:49.914Z,4.84
2023-04-11T09:59:53.431Z,5.51
2023-04-11T10:00:55.913Z,5.38
2023-04-11T10:01:57.878Z,10.57
2023-04-11T10:03:00.732Z,5.01
2023-04-11T10:04:02.847Z,5.34
2023-04-11T10:05:06.461Z,5.94
2023-04-11T10:06:15.636Z,5.73
2023-04-11T10:07:19.024Z,6.95
2023-04-11T10:08:27.808Z,5.89
2023-04-11T10:09:31.638Z,5.13
2023-04-11T10:10:35.363Z,5.62
2023-04-11T10:11:42.735Z,6.23
2023-04-11T10:12:45.955Z,8.19
2023-04-11T10:13:47.876Z,4.64
2023-04-11T10:14:49.741Z,6.51
2023-04-11T10:16:12.354Z,6.97
2023-04-11T10:17:22.855Z,9.22
2023-04-11T10:18:23.048Z,6.20
2023-04-11T10:19:25.104Z,5.23
2023-04-11T10:20:36.214Z,6.15
2023-04-11T10:21:38.787Z,8.79
2023-04-11T10:22:44.456Z,5.66
2023-04-11T10:24:09.985Z,6.62
2023-04-11T10:25:22.118Z,7.32
2023-04-11T10:26:46.222Z,5.51
2023-04-11T10:27:50.462Z,6.37
2023-04-11T10:28:52.470Z,6.42
2023-04-11T10:29:54.346Z,5.43
2023-04-11T10:31:06.395Z,6.13
2023-04-11T10:32:13.939Z,7.07
2023-04-11T10:33:17.448Z,5.34
2023-04-11T10:34:20.872Z,4.64
2023-04-11T10:35:24.256Z,5.60
2023-04-11T10:36:26.237Z,5.60
2023-04-11T10:37:33.672Z,5.67
2023-04-11T10:38:44.914Z,5.63
2023-04-11T10:41:20.494Z,4.60
2023-04-11T10:42:30.308Z,5.48
2023-04-11T10:43:33.218Z,4.17
2023-04-11T10:44:36.004Z,5.28
2023-04-11T10:45:38.043Z,4.45
2023-04-11T10:46:46.008Z,5.27
2023-04-11T10:47:57.682Z,6.48
2023-04-11T10:49:04.304Z,5.59
2023-04-11T10:50:28.807Z,5.79
2023-04-11T10:51:32.934Z,6.32
2023-04-11T10:52:37.264Z,5.97
2023-04-11T10:53:39.547Z,7.99
2023-04-11T10:54:41.783Z,6.09
2023-04-11T10:55:47.081Z,4.43
2023-04-11T10:56:54.142Z,6.86
2023-04-11T10:58:14.662Z,4.97
2023-04-11T10:59:35.683Z,4.98
2023-04-11T11:00:51.157Z,4.88
2023-04-11T11:01:59.677Z,7.33
2023-04-11T11:03:02.427Z,4.13
2023-04-11T11:04:05.185Z,4.58
2023-04-11T11:05:15.022Z,4.87
2023-04-11T11:06:17.458Z,6.28
2023-04-11T11:07:19.326Z,4.59
2023-04-11T11:08:33.053Z,4.59
2023-04-11T11:09:35.061Z,4.97
2023-04-11T11:10:40.036Z,4.86
2023-04-11T11:11:42.075Z,4.52
2023-04-11T11:12:53.739Z,5.29
2023-04-11T11:13:56.194Z,5.61
2023-04-11T11:15:00.447Z,4.26
2023-04-11T11:16:02.689Z,4.89
2023-04-11T11:17:06.486Z,7.31
2023-04-11T11:18:09.635Z,4.21
2023-04-11T11:19:13.517Z,4.11
2023-04-11T11:20:17.527Z,4.75
2023-04-11T11:21:27.902Z,4.79
2023-04-11T11:22:26.175Z,6.09
2023-04-11T11:23:28.310Z,9.21
2023-04-11T11:24:30.618Z,5.71
2023-04-11T11:25:33.954Z,5.09
2023-04-11T11:26:41.439Z,6.36
2023-04-11T11:27:43.368Z,4.19
2023-04-11T11:28:46.638Z,3.41
2023-04-11T11:29:48.819Z,5.57
2023-04-11T11:30:54.975Z,3.81
2023-04-11T11:31:56.885Z,4.19
2023-04-11T11:32:59.489Z,4.75
2023-04-11T11:34:18.455Z,4.73
2023-04-11T11:35:15.498Z,5.21
2023-04-11T11:36:17.832Z,5.87
2023-04-11T11:37:20.175Z,4.92
2023-04-11T11:38:27.699Z,7.09
2023-04-11T11:39:32.112Z,5.13
2023-04-11T11:40:34.385Z,5.97
2023-04-11T11:41:38.448Z,7.11
2023-04-11T11:42:40.888Z,5.18
2023-04-11T11:43:42.750Z,4.45
2023-04-11T11:44:44.635Z,5.10
2023-04-11T11:45:47.117Z,3.53
2023-04-11T11:47:06.995Z,5.52
2023-04-11T11:48:21.618Z,6.03
2023-04-11T11:49:23.901Z,5.58
2023-04-11T11:51:40.334Z,5.63
2023-04-11T11:52:42.343Z,6.07
2023-04-11T11:53:46.216Z,3.19
2023-04-11T11:54:48.601Z,7.23
2023-04-11T11:55:50.873Z,4.48
2023-04-11T11:56:52.985Z,3.54
2023-04-11T11:58:00.685Z,3.27
2023-04-11T11:59:03.416Z,6.54
2023-04-11T12:00:07.214Z,5.11
2023-04-11T12:02:16.600Z,5.69
2023-04-11T12:03:24.446Z,8.21
2023-04-11T12:04:26.858Z,4.16
2023-04-11T12:05:31.198Z,5.83
2023-04-11T12:06:33.522Z,3.34
2023-04-11T12:07:41.604Z,4.91
2023-04-11T12:08:45.757Z,5.01
2023-04-11T12:09:48.741Z,4.21
2023-04-11T12:10:51.570Z,5.42
2023-04-11T12:11:54.039Z,5.58
2023-04-11T12:12:55.918Z,6.14
2023-04-11T12:13:58.166Z,4.55
2023-04-11T12:15:01.718Z,5.23
2023-04-11T12:16:04.652Z,3.90
2023-04-11T12:17:09.243Z,6.36
2023-04-11T12:18:11.523Z,7.94
2023-04-11T12:19:13.704Z,5.61
2023-04-11T12:20:16.191Z,9.40
2023-04-11T12:21:18.046Z,5.56
2023-04-11T12:22:19.913Z,5.60
2023-04-11T12:23:22.912Z,4.33
2023-04-11T12:24:24.886Z,3.54
2023-04-11T12:25:27.251Z,4.19
2023-04-11T12:26:29.225Z,5.65
2023-04-11T12:27:31.320Z,5.25
2023-04-11T12:28:33.245Z,7.11
2023-04-11T12:29:35.108Z,7.67
2023-04-11T12:30:37.913Z,9.61
2023-04-11T12:31:39.905Z,4.85
2023-04-11T12:32:43.282Z,6.23
2023-04-11T12:33:45.419Z,4.02
2023-04-11T12:34:47.359Z,5.17
2023-04-11T12:35:49.459Z,5.52
2023-04-11T12:36:51.549Z,7.79
2023-04-11T12:37:53.409Z,6.61
2023-04-11T12:38:55.399Z,7.33
2023-04-11T12:39:57.745Z,7.97
2023-04-11T12:41:19.876Z,4.49
2023-04-11T12:42:05.375Z,4.71
2023-04-11T12:43:07.342Z,6.78
2023-04-11T12:44:09.200Z,5.64
2023-04-11T12:45:12.528Z,5.94
2023-04-11T12:46:14.777Z,6.50
2023-04-11T12:47:17.080Z,5.06
2023-04-11T12:48:19.070Z,3.84
2023-04-11T12:49:20.930Z,5.29
2023-04-11T12:50:23.068Z,7.95
2023-04-11T12:51:25.032Z,9.83
2023-04-11T12:52:28.676Z,5.23
2023-04-11T12:53:30.709Z,5.46
2023-04-11T12:54:32.988Z,6.19
2023-04-11T12:55:35.021Z,4.88
2023-04-11T12:56:38.520Z,5.05
2023-04-11T12:57:40.451Z,4.74
2023-04-11T12:58:42.339Z,9.50
2023-04-11T12:59:44.598Z,5.31
2023-04-11T13:00:46.679Z,5.49
2023-04-11T13:01:48.618Z,5.00
2023-04-11T13:02:50.860Z,5.16
2023-04-11T13:03:53.199Z,4.95
2023-04-11T13:04:55.399Z,5.81
2023-04-11T13:05:57.545Z,4.69
2023-04-11T13:06:59.618Z,4.53
2023-04-11T13:08:01.628Z,5.63
2023-04-11T13:09:05.833Z,8.23
2023-04-11T13:10:09.471Z,5.20
2023-04-11T13:11:11.341Z,3.53
2023-04-11T13:12:13.679Z,7.05
2023-04-11T13:13:18.547Z,5.14
2023-04-11T13:14:19.491Z,5.56
2023-04-11T13:15:21.654Z,5.65
2023-04-11T13:16:23.898Z,7.70
2023-04-11T13:17:25.832Z,4.87
2023-04-11T13:18:27.816Z,4.33
2023-04-11T13:19:29.731Z,6.61
2023-04-11T13:20:31.722Z,5.31
2023-04-11T13:21:33.745Z,3.82
2023-04-11T13:22:37.120Z,3.63
2023-04-11T13:23:39.171Z,5.67
2023-04-11T13:24:41.323Z,5.47
2023-04-11T13:25:43.334Z,4.55
2023-04-11T13:26:45.376Z,3.98
2023-04-11T13:27:47.268Z,3.97
2023-04-11T13:28:49.278Z,6.13
2023-04-11T13:29:51.306Z,5.39
2023-04-11T13:30:55.055Z,5.11
2023-04-11T13:31:57.005Z,7.37
2023-04-11T13:32:59.257Z,5.81
2023-04-11T13:34:01.944Z,4.98
2023-04-11T13:35:04.450Z,5.21
2023-04-11T13:36:09.491Z,5.25
2023-04-11T13:37:11.400Z,6.21
2023-04-11T13:38:13.375Z,6.71
2023-04-11T13:39:15.329Z,4.71
2023-04-11T13:40:17.468Z,5.37
2023-04-11T13:41:20.046Z,4.82
2023-04-11T13:42:22.021Z,5.47
2023-04-11T13:43:23.888Z,6.07
2023-04-11T13:44:25.875Z,4.05
2023-04-11T13:45:27.848Z,6.87
2023-04-11T13:46:30.016Z,6.20
2023-04-11T13:47:34.845Z,8.87
2023-04-11T13:48:37.401Z,6.53
2023-04-11T13:49:39.376Z,4.97
2023-04-11T13:50:41.827Z,5.83
2023-04-11T13:51:43.892Z,5.87
2023-04-11T13:52:46.273Z,5.59
2023-04-11T13:53:48.649Z,7.86
2023-04-11T13:54:50.640Z,4.56